createdAt,value
2019-04-20T00:00:42.993Z,978.24
2019-04-20T00:01:39.226Z,978.26
2019-04-20T00:02:38.320Z,978.24
2019-04-20T00:03:42.330Z,978.29
2019-04-20T00:04:39.276Z,978.24
2019-04-20T00:05:39.225Z,978.22
2019-04-20T00:06:45.097Z,978.19
2019-04-20T00:07:39.725Z,978.21
2019-04-20T00:08:41.140Z,978.22
2019-04-20T00:09:40.097Z,978.21
2019-04-20T00:10:48.635Z,978.18
2019-04-20T00:11:50.760Z,978.14
2019-04-20T00:12:53.609Z,978.19
2019-04-20T00:13:47.667Z,978.08
2019-04-20T00:14:40.588Z,978.14
2019-04-20T00:15:38.914Z,978.13
2019-04-20T00:16:38.130Z,978.10
2019-04-20T00:17:39.365Z,978.17
2019-04-20T00:18:45.025Z,978.10
2019-04-20T00:19:45.041Z,978.11
2019-04-20T00:20:40.384Z,978.15
2019-04-20T00:21:43.135Z,978.18
2019-04-20T00:22:45.219Z,978.16
2019-04-20T00:23:42.003Z,978.12
2019-04-20T00:24:39.304Z,978.13
2019-04-20T00:25:50.309Z,978.12
2019-04-20T00:27:59.706Z,978.06
2019-04-20T00:29:00.274Z,978.13
2019-04-20T00:29:54.724Z,978.09
2019-04-20T00:31:00.036Z,978.14
2019-04-20T00:31:50.434Z,978.05
2019-04-20T00:32:54.680Z,978.03
2019-04-20T00:33:50.739Z,978.07
2019-04-20T00:34:41.661Z,978.08
2019-04-20T00:35:40.148Z,978.03
2019-04-20T00:36:39.108Z,978.04
2019-04-20T00:37:38.104Z,978.03
2019-04-20T00:38:42.580Z,978.08
2019-04-20T00:39:38.929Z,978.14
2019-04-20T00:40:39.168Z,978.04
2019-04-20T00:41:44.132Z,978.07
2019-04-20T00:42:44.145Z,978.02
2019-04-20T00:43:40.825Z,978.06
2019-04-20T00:44:41.290Z,978.01
2019-04-20T00:45:46.727Z,978.04
2019-04-20T00:46:51.241Z,978.04
2019-04-20T00:47:47.720Z,978.08
2019-04-20T00:48:48.403Z,977.99
2019-04-20T00:50:49.078Z,978.04
2019-04-20T00:51:59.950Z,978.12
2019-04-20T00:52:55.592Z,978.06
2019-04-20T00:53:43.259Z,978.04
2019-04-20T00:54:39.072Z,978.07
2019-04-20T00:55:38.029Z,978.04
2019-04-20T00:56:37.619Z,978.08
2019-04-20T00:57:46.615Z,978.04
2019-04-20T00:58:52.245Z,978.04
2019-04-20T01:00:03.597Z,978.00
2019-04-20T01:01:04.084Z,978.03
2019-04-20T01:02:02.316Z,978.01
2019-04-20T01:02:50.604Z,978.03
2019-04-20T01:03:50.365Z,978.02
2019-04-20T01:05:01.270Z,978.03
2019-04-20T01:06:04.281Z,978.01
2019-04-20T01:06:55.079Z,978.01
2019-04-20T01:07:45.564Z,978.00
2019-04-20T01:08:38.479Z,978.00
2019-04-20T01:09:37.466Z,977.97
2019-04-20T01:10:44.804Z,977.96
2019-04-20T01:11:42.227Z,977.95
2019-04-20T01:12:40.601Z,977.99
2019-04-20T01:13:45.925Z,977.97
2019-04-20T01:14:46.597Z,977.97
2019-04-20T01:15:50.241Z,977.94
2019-04-20T01:16:46.973Z,978.00
2019-04-20T01:17:41.733Z,978.01
2019-04-20T01:18:37.454Z,978.03
2019-04-20T01:19:37.466Z,977.98
2019-04-20T01:20:37.425Z,977.95
2019-04-20T01:21:38.377Z,978.00
2019-04-20T01:22:44.631Z,978.01
2019-04-20T01:23:46.211Z,977.96
2019-04-20T01:24:43.261Z,977.95
2019-04-20T01:25:42.453Z,977.96
2019-04-20T01:26:45.586Z,977.95
2019-04-20T01:27:51.514Z,977.93
2019-04-20T01:28:51.124Z,977.97
2019-04-20T01:29:45.677Z,977.93
2019-04-20T01:30:44.432Z,977.95
2019-04-20T01:32:57.618Z,978.01
2019-04-20T01:33:50.815Z,978.02
2019-04-20T01:34:50.476Z,978.02
2019-04-20T01:35:53.214Z,978.02
2019-04-20T01:36:55.698Z,977.98
2019-04-20T01:37:57.545Z,978.02
2019-04-20T01:38:51.301Z,978.04
2019-04-20T01:39:46.278Z,978.06
2019-04-20T01:40:38.225Z,978.02
2019-04-20T01:41:37.227Z,978.11
2019-04-20T01:42:38.289Z,978.08
2019-04-20T01:43:37.449Z,978.10
2019-04-20T01:44:43.375Z,978.06
2019-04-20T01:45:40.904Z,978.05
2019-04-20T01:46:39.156Z,978.04
2019-04-20T01:47:45.443Z,978.03
2019-04-20T01:48:41.216Z,978.07
2019-04-20T01:49:39.919Z,978.02
2019-04-20T01:50:43.841Z,978.00
2019-04-20T01:51:48.765Z,978.01
2019-04-20T01:52:50.701Z,978.05
2019-04-20T01:53:50.408Z,978.06
2019-04-20T01:54:58.018Z,978.01
2019-04-20T01:55:51.079Z,978.06
2019-04-20T01:56:48.641Z,978.10
2019-04-20T01:57:56.297Z,978.07
2019-04-20T01:58:58.505Z,978.04
2019-04-20T01:59:45.999Z,978.08
2019-04-20T02:00:40.707Z,978.06
2019-04-20T02:01:40.686Z,978.08
2019-04-20T02:02:46.086Z,978.01
2019-04-20T02:03:43.400Z,978.03
2019-04-20T02:04:40.993Z,978.04
2019-04-20T02:05:40.009Z,978.05
2019-04-20T02:06:44.039Z,978.09
2019-04-20T02:07:43.819Z,978.01
2019-04-20T02:08:37.935Z,978.06
2019-04-20T02:09:43.303Z,978.06
2019-04-20T02:10:46.795Z,978.15
2019-04-20T02:11:41.369Z,978.02
2019-04-20T02:12:40.578Z,978.07
2019-04-20T02:13:47.016Z,978.06
2019-04-20T02:14:43.695Z,978.08
2019-04-20T02:15:44.654Z,978.05
2019-04-20T02:16:44.047Z,978.10
2019-04-20T02:17:46.209Z,978.09
2019-04-20T02:18:51.446Z,978.17
2019-04-20T02:20:02.300Z,978.10
2019-04-20T02:21:00.216Z,978.14
2019-04-20T02:21:52.033Z,978.13
2019-04-20T02:22:55.039Z,978.12
2019-04-20T02:23:46.420Z,978.15
2019-04-20T02:24:38.756Z,978.10
2019-04-20T02:25:37.670Z,978.03
2019-04-20T02:26:36.795Z,978.10
2019-04-20T02:27:44.460Z,978.10
2019-04-20T02:29:07.499Z,978.13
2019-04-20T02:29:58.505Z,978.07
2019-04-20T02:31:20.848Z,978.16
2019-04-20T02:33:23.522Z,978.09
2019-04-20T02:34:16.441Z,978.10
2019-04-20T02:35:07.166Z,978.10
2019-04-20T02:36:33.640Z,978.11
2019-04-20T02:37:13.872Z,978.07
2019-04-20T02:38:12.131Z,978.08
2019-04-20T02:39:21.073Z,978.08
2019-04-20T02:40:12.901Z,978.13
2019-04-20T02:41:12.048Z,978.14
2019-04-20T02:42:20.348Z,978.17
2019-04-20T02:43:16.839Z,978.09
2019-04-20T02:44:24.126Z,978.11
2019-04-20T02:45:18.777Z,978.04
2019-04-20T02:46:12.999Z,978.09
2019-04-20T02:48:08.122Z,978.07
2019-04-20T02:49:27.286Z,978.07
2019-04-20T02:50:05.459Z,978.02
2019-04-20T02:51:06.554Z,978.01
2019-04-20T02:52:28.854Z,978.06
2019-04-20T02:53:13.157Z,977.99
2019-04-20T02:55:10.840Z,977.97
2019-04-20T02:56:15.248Z,978.03
2019-04-20T02:57:10.566Z,977.98
2019-04-20T02:58:07.316Z,978.01
2019-04-20T03:01:00.169Z,978.04
2019-04-20T03:01:57.331Z,978.02
2019-04-20T03:02:49.885Z,978.00
2019-04-20T03:03:46.243Z,978.02
2019-04-20T03:04:47.073Z,978.00
2019-04-20T03:05:46.070Z,978.04
2019-04-20T03:06:55.008Z,978.00
2019-04-20T03:07:57.394Z,978.07
2019-04-20T03:08:56.334Z,977.99
2019-04-20T03:09:58.205Z,977.97
2019-04-20T03:11:06.273Z,978.00
2019-04-20T03:12:59.376Z,978.01
2019-04-20T03:13:59.382Z,977.95
2019-04-20T03:14:52.769Z,978.06
2019-04-20T03:15:54.987Z,978.11
2019-04-20T03:16:55.257Z,978.09
2019-04-20T03:18:00.125Z,978.05
2019-04-20T03:18:55.859Z,978.07
2019-04-20T03:19:47.601Z,978.16
2019-04-20T03:21:00.806Z,978.05
2019-04-20T03:22:05.061Z,978.01
2019-04-20T03:23:21.343Z,978.11
2019-04-20T03:24:09.889Z,978.10
2019-04-20T03:25:03.914Z,978.15
2019-04-20T03:26:00.619Z,978.11
2019-04-20T03:26:56.995Z,978.11
2019-04-20T03:27:59.113Z,978.19
2019-04-20T03:28:54.301Z,978.15
2019-04-20T03:29:57.360Z,978.15
2019-04-20T03:33:14.625Z,978.16
2019-04-20T03:34:23.549Z,978.19
2019-04-20T03:35:05.170Z,978.18
2019-04-20T03:36:09.356Z,978.17
2019-04-20T03:37:04.701Z,978.21
2019-04-20T03:37:58.687Z,978.18
2019-04-20T03:38:57.471Z,978.16
2019-04-20T03:39:55.471Z,978.21
2019-04-20T03:40:49.618Z,978.21
2019-04-20T03:41:43.476Z,978.20
2019-04-20T03:42:37.124Z,978.15
2019-04-20T03:43:37.035Z,978.22
2019-04-20T03:44:37.517Z,978.17
2019-04-20T03:45:44.774Z,978.20
2019-04-20T03:46:45.629Z,978.18
2019-04-20T03:47:49.699Z,978.25
2019-04-20T03:48:54.747Z,978.20
2019-04-20T03:49:59.660Z,978.25
2019-04-20T03:50:58.949Z,978.23
2019-04-20T03:51:57.395Z,978.27
2019-04-20T03:53:04.428Z,978.28
2019-04-20T03:53:57.923Z,978.27
2019-04-20T03:54:48.104Z,978.27
2019-04-20T03:55:52.932Z,978.32
2019-04-20T03:56:54.709Z,978.34
2019-04-20T03:57:57.603Z,978.31
2019-04-20T03:58:51.951Z,978.27
2019-04-20T03:59:55.103Z,978.22
2019-04-20T04:00:57.894Z,978.31
2019-04-20T04:02:14.855Z,978.28
2019-04-20T04:03:11.008Z,978.28
2019-04-20T04:04:03.256Z,978.29
2019-04-20T04:04:54.801Z,978.28
2019-04-20T04:05:54.830Z,978.28
2019-04-20T04:06:46.118Z,978.25
2019-04-20T04:07:43.767Z,978.21
2019-04-20T04:08:46.720Z,978.27
2019-04-20T04:09:53.450Z,978.29
2019-04-20T04:10:56.096Z,978.32
2019-04-20T04:11:51.500Z,978.31
2019-04-20T04:12:39.895Z,978.30
2019-04-20T04:13:37.650Z,978.30
2019-04-20T04:14:36.534Z,978.27
2019-04-20T04:15:42.671Z,978.31
2019-04-20T04:16:42.903Z,978.29
2019-04-20T04:17:40.583Z,978.33
2019-04-20T04:18:41.013Z,978.29
2019-04-20T04:19:38.771Z,978.33
2019-04-20T04:20:44.313Z,978.35
2019-04-20T04:21:53.903Z,978.28
2019-04-20T04:22:50.264Z,978.34
2019-04-20T04:23:54.276Z,978.36
2019-04-20T04:24:52.596Z,978.35
2019-04-20T04:25:55.647Z,978.36
2019-04-20T04:26:51.211Z,978.28
2019-04-20T04:27:55.101Z,978.35
2019-04-20T04:28:53.729Z,978.36
2019-04-20T04:29:58.288Z,978.35
2019-04-20T04:30:56.561Z,978.36
2019-04-20T04:32:06.668Z,978.35
2019-04-20T04:33:24.922Z,978.42
2019-04-20T04:34:52.690Z,978.39
2019-04-20T04:35:55.195Z,978.37
2019-04-20T04:36:59.425Z,978.44
2019-04-20T04:37:53.954Z,978.43
2019-04-20T04:39:05.413Z,978.43
2019-04-20T04:40:07.860Z,978.50
2019-04-20T04:41:06.571Z,978.52
2019-04-20T04:42:01.827Z,978.47
2019-04-20T04:43:00.736Z,978.42
2019-04-20T04:43:54.133Z,978.55
2019-04-20T04:44:46.829Z,978.54
2019-04-20T04:45:36.970Z,978.56
2019-04-20T04:46:43.497Z,978.44
2019-04-20T04:47:36.771Z,978.57
2019-04-20T04:48:40.660Z,978.58
2019-04-20T04:49:40.985Z,978.57
2019-04-20T04:50:44.876Z,978.53
2019-04-20T04:51:44.727Z,978.60
2019-04-20T04:52:45.376Z,978.53
2019-04-20T04:53:47.639Z,978.55
2019-04-20T04:54:45.291Z,978.55
2019-04-20T04:55:45.802Z,978.56
2019-04-20T04:56:35.943Z,978.55
2019-04-20T04:57:35.002Z,978.49
2019-04-20T04:58:36.169Z,978.50
2019-04-20T04:59:36.161Z,978.56
2019-04-20T05:00:36.314Z,978.57
2019-04-20T05:01:36.983Z,978.60
2019-04-20T05:02:41.240Z,978.57
2019-04-20T05:03:58.279Z,978.59
2019-04-20T05:04:58.193Z,978.57
2019-04-20T05:05:58.893Z,978.66
2019-04-20T05:06:48.124Z,978.69
2019-04-20T05:07:47.816Z,978.60
2019-04-20T05:08:41.811Z,978.64
2019-04-20T05:09:35.966Z,978.64
2019-04-20T05:10:34.912Z,978.65
2019-04-20T05:11:35.438Z,978.63
2019-04-20T05:12:36.975Z,978.65
2019-04-20T05:13:41.866Z,978.64
2019-04-20T05:14:47.112Z,978.70
2019-04-20T05:15:50.766Z,978.65
2019-04-20T05:16:50.979Z,978.69
2019-04-20T05:17:57.846Z,978.69
2019-04-20T05:18:57.855Z,978.71
2019-04-20T05:19:53.094Z,978.73
2019-04-20T05:20:58.852Z,978.69
2019-04-20T05:21:59.829Z,978.68
2019-04-20T05:22:50.998Z,978.74
2019-04-20T05:23:49.157Z,978.70
2019-04-20T05:24:56.715Z,978.70
2019-04-20T05:25:56.988Z,978.70
2019-04-20T05:26:55.644Z,978.66
2019-04-20T05:27:56.632Z,978.70
2019-04-20T05:28:47.317Z,978.71
2019-04-20T05:29:37.807Z,978.68
2019-04-20T05:30:42.910Z,978.71
2019-04-20T05:31:46.219Z,978.75
2019-04-20T05:32:44.912Z,978.71
2019-04-20T05:34:03.520Z,978.71
2019-04-20T05:35:02.487Z,978.69
2019-04-20T05:35:54.708Z,978.77
2019-04-20T05:36:55.664Z,978.79
2019-04-20T05:38:02.751Z,978.77
2019-04-20T05:38:54.621Z,978.79
2019-04-20T05:40:00.345Z,978.75
2019-04-20T05:40:59.801Z,978.74
2019-04-20T05:41:51.469Z,978.80
2019-04-20T05:42:53.772Z,978.77
2019-04-20T05:43:50.595Z,978.77
2019-04-20T05:45:03.291Z,978.76
2019-04-20T05:45:50.357Z,978.79
2019-04-20T05:46:56.932Z,978.80
2019-04-20T05:47:52.426Z,978.78
2019-04-20T05:48:57.923Z,978.78
2019-04-20T05:49:53.697Z,978.74
2019-04-20T05:50:52.816Z,978.74
2019-04-20T05:51:56.016Z,978.75
2019-04-20T05:53:01.669Z,978.77
2019-04-20T05:53:58.760Z,978.77
2019-04-20T05:54:56.274Z,978.76
2019-04-20T05:55:54.440Z,978.74
2019-04-20T05:56:58.534Z,978.75
2019-04-20T05:57:56.614Z,978.76
2019-04-20T05:58:56.793Z,978.76
2019-04-20T06:00:05.275Z,978.72
2019-04-20T06:01:01.500Z,978.75
2019-04-20T06:02:02.169Z,978.80
2019-04-20T06:02:53.927Z,978.74
2019-04-20T06:03:53.963Z,978.69
2019-04-20T06:05:05.684Z,978.74
2019-04-20T06:06:03.539Z,978.75
2019-04-20T06:06:56.708Z,978.78
2019-04-20T06:07:56.293Z,978.71
2019-04-20T06:08:59.303Z,978.75
2019-04-20T06:09:59.964Z,978.75
2019-04-20T06:10:55.079Z,978.75
2019-04-20T06:12:07.510Z,978.69
2019-04-20T06:12:51.747Z,978.74
2019-04-20T06:13:47.126Z,978.76
2019-04-20T06:14:49.542Z,978.77
2019-04-20T06:15:58.022Z,978.69
2019-04-20T06:16:55.829Z,978.79
2019-04-20T06:17:53.111Z,978.66
2019-04-20T06:18:56.101Z,978.69
2019-04-20T06:20:01.717Z,978.68
2019-04-20T06:20:58.954Z,978.68
2019-04-20T06:21:57.549Z,978.73
2019-04-20T06:23:07.026Z,978.71
2019-04-20T06:23:59.464Z,978.67
2019-04-20T06:25:04.528Z,978.72
2019-04-20T06:27:00.909Z,978.70
2019-04-20T06:28:00.905Z,978.71
2019-04-20T06:28:42.942Z,978.63
2019-04-20T06:29:54.432Z,978.70
2019-04-20T06:30:51.109Z,978.66
2019-04-20T06:31:51.799Z,978.61
2019-04-20T06:33:06.871Z,978.63
2019-04-20T06:34:08.887Z,978.61
2019-04-20T06:34:57.085Z,978.64
2019-04-20T06:37:07.143Z,978.57
2019-04-20T06:38:05.350Z,978.60
2019-04-20T06:39:02.013Z,978.61
2019-04-20T06:40:15.650Z,978.64
2019-04-20T06:41:09.360Z,978.61
2019-04-20T06:42:54.920Z,978.59
2019-04-20T06:44:02.590Z,978.66
2019-04-20T06:44:57.345Z,978.59
2019-04-20T06:46:08.618Z,978.62
2019-04-20T06:47:06.775Z,978.60
2019-04-20T06:47:57.855Z,978.59
2019-04-20T06:49:05.736Z,978.63
2019-04-20T06:49:54.838Z,978.58
2019-04-20T06:50:48.365Z,978.60
2019-04-20T06:51:59.319Z,978.59
2019-04-20T06:52:52.558Z,978.62
2019-04-20T06:53:51.117Z,978.62
2019-04-20T06:54:54.146Z,978.64
2019-04-20T06:55:59.142Z,978.63
2019-04-20T06:56:58.173Z,978.65
2019-04-20T06:58:02.316Z,978.71
2019-04-20T06:58:57.770Z,978.69
2019-04-20T06:59:52.501Z,978.62
2019-04-20T07:00:56.550Z,978.66
2019-04-20T07:02:05.526Z,978.61
2019-04-20T07:02:56.343Z,978.64
2019-04-20T07:04:15.703Z,978.60
2019-04-20T07:04:59.666Z,978.64
2019-04-20T07:06:06.463Z,978.59
2019-04-20T07:07:07.260Z,978.65
2019-04-20T07:07:56.392Z,978.64
2019-04-20T07:09:00.376Z,978.63
2019-04-20T07:10:11.774Z,978.60
2019-04-20T07:10:59.331Z,978.62
2019-04-20T07:11:51.901Z,978.66
2019-04-20T07:12:49.717Z,978.62
2019-04-20T07:13:46.096Z,978.65
2019-04-20T07:14:46.893Z,978.65
2019-04-20T07:15:49.340Z,978.59
2019-04-20T07:16:53.384Z,978.63
2019-04-20T07:17:57.644Z,978.65
2019-04-20T07:18:57.578Z,978.60
2019-04-20T07:19:54.320Z,978.62
2019-04-20T07:21:01.847Z,978.63
2019-04-20T07:23:03.644Z,978.64
2019-04-20T07:24:03.576Z,978.68
2019-04-20T07:24:57.820Z,978.63
2019-04-20T07:25:58.535Z,978.65
2019-04-20T07:26:59.094Z,978.72
2019-04-20T07:27:54.601Z,978.67
2019-04-20T07:29:05.428Z,978.67
2019-04-20T07:29:57.938Z,978.63
2019-04-20T07:30:55.352Z,978.67
2019-04-20T07:31:50.020Z,978.64
2019-04-20T07:33:12.588Z,978.67
2019-04-20T07:33:56.764Z,978.69
2019-04-20T07:34:56.786Z,978.64
2019-04-20T07:35:53.419Z,978.66
2019-04-20T07:37:17.935Z,978.66
2019-04-20T07:38:15.490Z,978.67
2019-04-20T07:38:56.794Z,978.64
2019-04-20T07:40:02.686Z,978.66
2019-04-20T07:40:51.244Z,978.63
2019-04-20T07:42:01.805Z,978.69
2019-04-20T07:42:56.454Z,978.66
2019-04-20T07:44:05.839Z,978.60
2019-04-20T07:45:02.977Z,978.64
2019-04-20T07:45:58.810Z,978.66
2019-04-20T07:47:04.386Z,978.63
2019-04-20T07:48:01.622Z,978.59
2019-04-20T07:48:56.472Z,978.64
2019-04-20T07:49:49.739Z,978.60
2019-04-20T07:50:47.491Z,978.58
2019-04-20T07:51:39.965Z,978.62
2019-04-20T07:52:48.811Z,978.62
2019-04-20T07:53:58.642Z,978.62
2019-04-20T07:55:11.886Z,978.60
2019-04-20T07:55:56.458Z,978.56
2019-04-20T07:56:53.729Z,978.60
2019-04-20T07:57:50.757Z,978.60
2019-04-20T07:58:44.116Z,978.56
2019-04-20T07:59:52.820Z,978.59
2019-04-20T08:01:18.168Z,978.63
2019-04-20T08:02:01.911Z,978.58
2019-04-20T08:02:59.819Z,978.59
2019-04-20T08:03:57.018Z,978.60
2019-04-20T08:04:52.397Z,978.61
2019-04-20T08:05:46.759Z,978.56
2019-04-20T08:06:43.179Z,978.52
2019-04-20T08:07:45.703Z,978.50
2019-04-20T08:08:48.969Z,978.52
2019-04-20T08:09:40.756Z,978.49
2019-04-20T08:10:52.023Z,978.53
2019-04-20T08:11:56.683Z,978.52
2019-04-20T08:13:02.329Z,978.48
2019-04-20T08:13:56.988Z,978.57
2019-04-20T08:15:05.307Z,978.44
2019-04-20T08:15:57.165Z,978.49
2019-04-20T08:16:58.641Z,978.52
2019-04-20T08:18:08.839Z,978.53
2019-04-20T08:18:53.958Z,978.52
2019-04-20T08:19:50.980Z,978.43
2019-04-20T08:20:57.650Z,978.50
2019-04-20T08:21:52.919Z,978.46
2019-04-20T08:22:53.722Z,978.40
2019-04-20T08:23:50.258Z,978.39
2019-04-20T08:24:48.647Z,978.48
2019-04-20T08:25:46.811Z,978.45
2019-04-20T08:26:41.539Z,978.39
2019-04-20T08:27:33.868Z,978.43
2019-04-20T08:28:42.593Z,978.42
2019-04-20T08:29:45.037Z,978.40
2019-04-20T08:30:48.678Z,978.43
2019-04-20T08:31:49.047Z,978.38
2019-04-20T08:32:51.484Z,978.41
2019-04-20T08:34:01.733Z,978.37
2019-04-20T08:34:53.719Z,978.41
2019-04-20T08:35:58.631Z,978.45
2019-04-20T08:36:59.449Z,978.43
2019-04-20T08:38:19.921Z,978.39
2019-04-20T08:40:53.613Z,978.38
2019-04-20T08:41:56.334Z,978.42
2019-04-20T08:43:02.866Z,978.36
2019-04-20T08:44:31.687Z,978.37
2019-04-20T08:45:00.105Z,978.35
2019-04-20T08:45:52.761Z,978.35
2019-04-20T08:47:06.110Z,978.32
2019-04-20T08:47:57.143Z,978.30
2019-04-20T08:48:56.842Z,978.32
2019-04-20T08:49:58.181Z,978.28
2019-04-20T08:50:50.720Z,978.27
2019-04-20T08:52:01.804Z,978.33
2019-04-20T08:53:51.837Z,978.27
2019-04-20T08:54:49.924Z,978.28
2019-04-20T08:55:45.070Z,978.27
2019-04-20T08:56:42.418Z,978.24
2019-04-20T08:57:33.655Z,978.20
2019-04-20T08:58:32.246Z,978.22
2019-04-20T08:59:35.060Z,978.16
2019-04-20T09:00:39.661Z,978.19
2019-04-20T09:01:35.740Z,978.22
2019-04-20T09:02:32.676Z,978.20
2019-04-20T09:03:44.098Z,978.17
2019-04-20T09:04:43.256Z,978.17
2019-04-20T09:05:47.341Z,978.18
2019-04-20T09:06:45.724Z,978.14
2019-04-20T09:07:45.290Z,978.13
2019-04-20T09:08:47.832Z,978.18
2019-04-20T09:09:56.467Z,978.14
2019-04-20T09:10:49.263Z,978.13
2019-04-20T09:11:55.592Z,978.11
2019-04-20T09:12:44.873Z,978.09
2019-04-20T09:13:41.396Z,978.12
2019-04-20T09:14:36.089Z,978.11
2019-04-20T09:15:32.161Z,978.07
2019-04-20T09:16:40.941Z,978.10
2019-04-20T09:17:39.807Z,978.02
2019-04-20T09:18:44.247Z,978.13
2019-04-20T09:19:41.653Z,978.06
2019-04-20T09:20:43.538Z,978.03
2019-04-20T09:21:43.632Z,978.05
2019-04-20T09:22:44.442Z,978.02
2019-04-20T09:23:45.609Z,978.01
2019-04-20T09:24:52.811Z,978.05
2019-04-20T09:26:05.951Z,978.02
2019-04-20T09:26:48.959Z,978.01
2019-04-20T09:27:42.893Z,978.00
2019-04-20T09:28:41.730Z,977.95
2019-04-20T09:29:44.894Z,977.97
2019-04-20T09:30:43.770Z,977.99
2019-04-20T09:31:50.258Z,977.99
2019-04-20T09:32:43.918Z,977.96
2019-04-20T09:33:51.707Z,977.94
2019-04-20T09:34:54.586Z,977.94
2019-04-20T09:35:48.604Z,977.93
2019-04-20T09:36:45.829Z,978.00
2019-04-20T09:37:49.688Z,977.94
2019-04-20T09:38:45.940Z,977.95
2019-04-20T09:39:45.013Z,977.94
2019-04-20T09:40:51.108Z,977.93
2019-04-20T09:41:56.528Z,977.89
2019-04-20T09:42:32.763Z,977.94
2019-04-20T09:43:32.398Z,977.93
2019-04-20T09:44:38.643Z,977.89
2019-04-20T09:45:38.219Z,977.86
2019-04-20T09:46:37.775Z,977.89
2019-04-20T09:47:40.907Z,977.87
2019-04-20T09:48:40.235Z,977.84
2019-04-20T09:49:42.796Z,977.87
2019-04-20T09:50:55.594Z,977.86
2019-04-20T09:51:50.054Z,977.80
2019-04-20T09:52:51.288Z,977.80
2019-04-20T09:53:44.274Z,977.82
2019-04-20T09:54:52.427Z,977.79
2019-04-20T09:55:47.304Z,977.79
2019-04-20T09:56:55.439Z,977.78
2019-04-20T09:57:50.237Z,977.81
2019-04-20T09:58:56.327Z,977.76
2019-04-20T09:59:52.637Z,977.73
2019-04-20T10:00:48.608Z,977.77
2019-04-20T10:01:40.284Z,977.71
2019-04-20T10:02:34.777Z,977.78
2019-04-20T10:03:31.519Z,977.75
2019-04-20T10:04:31.598Z,977.81
2019-04-20T10:05:31.615Z,977.82
2019-04-20T10:06:34.532Z,977.72
2019-04-20T10:07:35.332Z,977.81
2019-04-20T10:08:34.023Z,977.74
2019-04-20T10:09:37.676Z,977.69
2019-04-20T10:10:38.874Z,977.71
2019-04-20T10:11:32.449Z,977.71
2019-04-20T10:12:31.578Z,977.70
2019-04-20T10:13:32.200Z,977.69
2019-04-20T10:14:31.372Z,977.64
2019-04-20T10:15:32.951Z,977.64
2019-04-20T10:16:31.530Z,977.65
2019-04-20T10:17:33.237Z,977.64
2019-04-20T10:18:34.260Z,977.64
2019-04-20T10:19:35.567Z,977.66
2019-04-20T10:20:35.285Z,977.67
2019-04-20T10:21:32.297Z,977.68
2019-04-20T10:22:31.323Z,977.69
2019-04-20T10:23:32.486Z,977.64
2019-04-20T10:24:32.679Z,977.62
2019-04-20T10:25:31.251Z,977.68
2019-04-20T10:26:32.410Z,977.57
2019-04-20T10:27:32.621Z,977.60
2019-04-20T10:28:31.823Z,977.64
2019-04-20T10:29:31.393Z,977.63
2019-04-20T10:30:32.461Z,977.53
2019-04-20T10:31:37.710Z,977.64
2019-04-20T10:32:38.864Z,977.54
2019-04-20T10:33:33.439Z,977.52
2019-04-20T10:34:32.627Z,977.55
2019-04-20T10:35:31.778Z,977.54
2019-04-20T10:36:31.136Z,977.50
2019-04-20T10:37:31.583Z,977.54
2019-04-20T10:38:34.200Z,977.52
2019-04-20T10:39:31.196Z,977.43
2019-04-20T10:40:45.017Z,977.52
2019-04-20T10:41:40.887Z,977.52
2019-04-20T10:42:32.272Z,977.49
2019-04-20T10:43:31.159Z,977.44
2019-04-20T10:44:31.145Z,977.47
2019-04-20T10:45:31.145Z,977.44
2019-04-20T10:46:31.177Z,977.42
2019-04-20T10:47:31.058Z,977.42
2019-04-20T10:48:37.604Z,977.38
2019-04-20T10:49:33.242Z,977.44
2019-04-20T10:50:31.250Z,977.37
2019-04-20T10:51:31.455Z,977.38
2019-04-20T10:52:32.022Z,977.39
2019-04-20T10:53:32.190Z,977.36
2019-04-20T10:54:32.253Z,977.30
2019-04-20T10:55:31.450Z,977.31
2019-04-20T10:56:31.712Z,977.40
2019-04-20T10:57:31.288Z,977.27
2019-04-20T10:58:31.725Z,977.31
2019-04-20T10:59:31.840Z,977.35
2019-04-20T11:00:31.385Z,977.39
2019-04-20T11:01:31.656Z,977.38
2019-04-20T11:02:31.881Z,977.33
2019-04-20T11:03:32.221Z,977.30
2019-04-20T11:04:30.955Z,977.29
2019-04-20T11:05:30.914Z,977.30
2019-04-20T11:06:32.287Z,977.35
2019-04-20T11:07:30.901Z,977.31
2019-04-20T11:08:30.919Z,977.33
2019-04-20T11:09:30.891Z,977.36
2019-04-20T11:10:46.772Z,977.28
2019-04-20T11:11:33.553Z,977.30
2019-04-20T11:12:30.835Z,977.37
2019-04-20T11:13:30.841Z,977.27
2019-04-20T11:14:34.533Z,977.28
2019-04-20T11:15:32.451Z,977.32
2019-04-20T11:16:30.833Z,977.33
2019-04-20T11:17:31.774Z,977.23
2019-04-20T11:18:31.398Z,977.32
2019-04-20T11:19:31.556Z,977.31
2019-04-20T11:20:31.108Z,977.29
2019-04-20T11:21:30.756Z,977.31
2019-04-20T11:22:30.773Z,977.29
2019-04-20T11:23:32.022Z,977.33
2019-04-20T11:24:32.192Z,977.28
2019-04-20T11:25:30.717Z,977.29
2019-04-20T11:26:32.167Z,977.29
2019-04-20T11:27:32.114Z,977.27
2019-04-20T11:28:30.664Z,977.29
2019-04-20T11:29:31.920Z,977.27
2019-04-20T11:30:32.091Z,977.31
2019-04-20T11:31:37.339Z,977.23
2019-04-20T11:32:31.634Z,977.26
2019-04-20T11:33:31.987Z,977.27
2019-04-20T11:34:33.994Z,977.25
2019-04-20T11:35:37.483Z,977.29
2019-04-20T11:36:32.884Z,977.24
2019-04-20T11:37:31.007Z,977.21
2019-04-20T11:38:30.562Z,977.24
2019-04-20T11:39:30.545Z,977.26
2019-04-20T11:40:30.888Z,977.22
2019-04-20T11:41:33.673Z,977.20
2019-04-20T11:42:31.873Z,977.18
2019-04-20T11:43:31.488Z,977.16
2019-04-20T11:44:32.978Z,977.10
2019-04-20T11:45:30.957Z,977.15
2019-04-20T11:46:30.584Z,977.20
2019-04-20T11:47:31.590Z,977.16
2019-04-20T11:48:31.713Z,977.15
2019-04-20T11:49:31.298Z,977.17
2019-04-20T11:50:31.573Z,977.13
2019-04-20T11:51:31.661Z,977.11
2019-04-20T11:52:33.278Z,977.07
2019-04-20T11:53:32.255Z,977.14
2019-04-20T11:54:30.578Z,977.14
2019-04-20T11:55:30.683Z,977.14
2019-04-20T11:56:35.258Z,977.09
2019-04-20T11:57:31.405Z,977.04
2019-04-20T11:58:30.451Z,977.04
2019-04-20T11:59:30.625Z,977.04
2019-04-20T12:00:37.069Z,977.02
2019-04-20T12:01:36.913Z,977.10
2019-04-20T12:02:37.188Z,977.05
2019-04-20T12:03:41.735Z,977.10
2019-04-20T12:04:40.871Z,977.03
2019-04-20T12:05:39.085Z,976.97
2019-04-20T12:06:32.681Z,977.06
2019-04-20T12:07:32.307Z,977.06
2019-04-20T12:08:31.186Z,977.01
2019-04-20T12:09:31.404Z,976.98
2019-04-20T12:10:31.520Z,976.99
2019-04-20T12:11:39.639Z,976.97
2019-04-20T12:12:38.991Z,976.99
2019-04-20T12:13:31.205Z,976.96
2019-04-20T12:14:30.475Z,976.97
2019-04-20T12:15:32.179Z,976.98
2019-04-20T12:16:30.151Z,976.94
2019-04-20T12:17:31.391Z,976.94
2019-04-20T12:18:31.551Z,976.93
2019-04-20T12:19:31.189Z,976.87
2019-04-20T12:20:30.104Z,976.91
2019-04-20T12:21:30.713Z,976.91
2019-04-20T12:22:30.410Z,976.83
2019-04-20T12:23:30.617Z,976.89
2019-04-20T12:24:31.240Z,976.89
2019-04-20T12:25:33.328Z,976.96
2019-04-20T12:26:31.107Z,976.81
2019-04-20T12:27:30.477Z,976.84
2019-04-20T12:28:30.085Z,976.92
2019-04-20T12:29:30.016Z,976.77
2019-04-20T12:30:30.084Z,976.74
2019-04-20T12:31:29.985Z,976.77
2019-04-20T12:32:36.437Z,976.66
2019-04-20T12:33:30.989Z,976.69
2019-04-20T12:34:30.729Z,976.70
2019-04-20T12:35:30.053Z,976.69
2019-04-20T12:36:30.220Z,976.65
2019-04-20T12:37:31.226Z,976.68
2019-04-20T12:38:30.794Z,976.70
2019-04-20T12:39:31.234Z,976.70
2019-04-20T12:40:30.195Z,976.67
2019-04-20T12:41:37.148Z,976.72
2019-04-20T12:42:30.944Z,976.67
2019-04-20T12:43:29.920Z,976.62
2019-04-20T12:44:30.030Z,976.63
2019-04-20T12:45:29.838Z,976.63
2019-04-20T12:46:29.829Z,976.62
2019-04-20T12:47:29.985Z,976.60